createdAt,value
2023-04-17T00:00:54.862Z,15.43
2023-04-17T00:03:23.017Z,14.80
2023-04-17T00:05:53.969Z,14.50
2023-04-17T00:08:23.431Z,14.73
2023-04-17T00:11:04.204Z,15.80
2023-04-17T00:13:34.996Z,16.10
2023-04-17T00:16:03.331Z,14.97
2023-04-17T00:18:31.570Z,14.50
2023-04-17T00:20:59.700Z,15.63
2023-04-17T00:23:29.179Z,14.90
2023-04-17T00:25:57.277Z,15.07
2023-04-17T00:28:25.729Z,14.47
2023-04-17T00:30:53.890Z,14.17
2023-04-17T00:33:22.175Z,13.90
2023-04-17T00:35:50.303Z,14.13
2023-04-17T00:38:18.405Z,13.80
2023-04-17T00:40:48.834Z,14.10
2023-04-17T00:43:16.937Z,13.93
2023-04-17T00:45:47.282Z,13.70
2023-04-17T00:48:16.541Z,14.60
2023-04-17T00:50:45.765Z,14.70
2023-04-17T00:53:14.486Z,14.10
2023-04-17T00:55:44.182Z,13.70
2023-04-17T00:58:14.472Z,14.27
2023-04-17T01:00:42.761Z,13.97
2023-04-17T01:03:11.565Z,15.63
2023-04-17T01:05:40.136Z,14.50
2023-04-17T01:08:08.510Z,15.20
2023-04-17T01:10:36.673Z,13.80
2023-04-17T01:13:05.972Z,14.60
2023-04-17T01:15:36.436Z,14.80
2023-04-17T01:18:04.996Z,15.47
2023-04-17T01:20:34.224Z,14.43
2023-04-17T01:23:02.666Z,15.67
2023-04-17T01:25:32.216Z,14.73
2023-04-17T01:28:00.337Z,16.10
2023-04-17T01:30:28.509Z,16.50
2023-04-17T01:32:56.771Z,15.43
2023-04-17T01:35:25.062Z,16.57
2023-04-17T01:37:53.290Z,16.03
2023-04-17T01:40:24.080Z,16.50
2023-04-17T01:42:53.613Z,16.87
2023-04-17T01:50:13.835Z,15.13
2023-04-17T01:52:42.061Z,15.87
2023-04-17T01:55:11.081Z,15.13
2023-04-17T01:57:39.372Z,16.97
2023-04-17T02:00:10.888Z,15.57
2023-04-17T02:02:39.112Z,17.20
2023-04-17T02:05:08.660Z,17.07
2023-04-17T02:07:36.737Z,16.87
2023-04-17T02:10:05.676Z,16.10
2023-04-17T02:12:33.841Z,15.83
2023-04-17T02:15:01.903Z,16.77
2023-04-17T02:17:31.459Z,17.80
2023-04-17T02:19:59.592Z,17.43
2023-04-17T02:22:27.766Z,16.60
2023-04-17T02:24:55.825Z,16.87
2023-04-17T02:27:23.942Z,17.70
2023-04-17T02:29:52.144Z,17.60
2023-04-17T02:32:20.389Z,17.50
2023-04-17T02:34:49.842Z,18.50
2023-04-17T02:37:17.927Z,19.30
2023-04-17T02:39:46.004Z,18.37
2023-04-17T02:42:14.080Z,19.37
2023-04-17T02:44:42.204Z,18.10
2023-04-17T02:47:10.280Z,21.07
2023-04-17T02:49:38.529Z,19.47
2023-04-17T02:52:08.119Z,18.93
2023-04-17T02:54:36.271Z,17.90
2023-04-17T02:57:04.579Z,20.83
2023-04-17T02:59:32.688Z,19.90
2023-04-17T03:07:23.832Z,20.83
2023-04-17T03:09:54.034Z,19.60
2023-04-17T03:12:22.104Z,20.63
2023-04-17T03:14:50.249Z,20.87
2023-04-17T03:17:19.072Z,19.97
2023-04-17T03:19:47.219Z,21.10
2023-04-17T03:22:15.320Z,20.80
2023-04-17T03:24:44.819Z,20.40
2023-04-17T03:27:12.904Z,19.40
2023-04-17T03:29:41.188Z,19.10
2023-04-17T03:32:09.338Z,20.80
2023-04-17T03:34:38.359Z,19.33
2023-04-17T03:37:06.458Z,20.87
2023-04-17T03:39:34.580Z,19.80
2023-04-17T03:42:04.056Z,20.00
2023-04-17T03:44:32.439Z,18.00
2023-04-17T03:47:00.555Z,20.83
2023-04-17T03:49:28.638Z,19.07
2023-04-17T03:51:57.484Z,19.27
2023-04-17T03:54:25.588Z,19.47
2023-04-17T03:56:53.667Z,20.43
2023-04-17T03:59:23.520Z,19.70
2023-04-17T04:01:54.314Z,17.67
2023-04-17T04:04:22.658Z,18.80
2023-04-17T04:06:51.044Z,17.53
2023-04-17T04:09:19.077Z,17.17
2023-04-17T04:11:47.140Z,17.27
2023-04-17T04:14:15.356Z,17.40
2023-04-17T04:16:44.801Z,18.20
2023-04-17T04:19:14.190Z,18.43
2023-04-17T04:21:43.576Z,19.60
2023-04-17T04:24:13.344Z,19.13
2023-04-17T04:26:42.135Z,18.73
2023-04-17T04:29:12.142Z,18.67
2023-04-17T04:31:41.009Z,18.90
2023-04-17T04:34:11.120Z,18.43
2023-04-17T04:36:42.042Z,17.73
2023-04-17T04:39:10.615Z,18.93
2023-04-17T04:41:38.875Z,18.63
2023-04-17T04:44:07.146Z,18.47
2023-04-17T04:46:35.300Z,17.53
2023-04-17T04:49:03.412Z,18.50
2023-04-17T04:51:33.797Z,17.53
2023-04-17T05:05:35.896Z,18.30
2023-04-17T05:08:05.667Z,20.03
2023-04-17T05:10:33.849Z,20.30
2023-04-17T05:13:01.928Z,19.77
2023-04-17T05:15:29.986Z,18.63
2023-04-17T05:17:58.214Z,18.80
2023-04-17T05:20:27.090Z,19.33
2023-04-17T05:22:55.784Z,18.90
2023-04-17T05:25:25.495Z,18.93
2023-04-17T05:27:53.530Z,18.30
2023-04-17T05:30:21.836Z,20.57
2023-04-17T05:32:50.018Z,20.03
2023-04-17T05:35:18.257Z,19.37
2023-04-17T05:37:49.437Z,20.33
2023-04-17T05:40:17.616Z,21.00
2023-04-17T05:42:47.158Z,20.27
2023-04-17T05:45:15.681Z,21.40
2023-04-17T05:47:43.803Z,19.17
2023-04-17T05:50:12.169Z,19.83
2023-04-17T05:52:40.252Z,20.43
2023-04-17T05:55:09.058Z,19.60
2023-04-17T05:57:37.103Z,19.53
2023-04-17T06:00:13.084Z,19.90
2023-04-17T06:02:43.120Z,21.37
2023-04-17T06:05:11.736Z,20.87
2023-04-17T06:07:40.420Z,19.80
2023-04-17T06:10:09.836Z,21.30
2023-04-17T06:12:38.085Z,20.10
2023-04-17T06:15:10.137Z,21.27
2023-04-17T06:17:38.480Z,20.20
2023-04-17T06:20:10.327Z,20.70
2023-04-17T06:22:38.855Z,18.20
2023-04-17T06:25:08.290Z,20.10
2023-04-17T06:27:37.181Z,20.43
2023-04-17T06:30:08.252Z,21.60
2023-04-17T06:32:36.475Z,21.13
2023-04-17T06:35:04.931Z,20.47
2023-04-17T06:37:32.979Z,20.93
2023-04-17T06:40:01.180Z,21.87
2023-04-17T06:42:29.339Z,21.43
2023-04-17T06:44:57.433Z,22.80
2023-04-17T06:47:26.970Z,19.77
2023-04-17T06:49:55.051Z,20.50
2023-04-17T06:52:23.442Z,20.37
2023-04-17T06:54:51.503Z,20.67
2023-04-17T06:57:19.586Z,21.40
2023-04-17T06:59:47.590Z,21.60
2023-04-17T07:03:14.090Z,21.43
2023-04-17T07:05:45.134Z,19.33
2023-04-17T07:08:13.556Z,20.27
2023-04-17T07:10:41.674Z,19.97
2023-04-17T07:13:09.727Z,20.60
2023-04-17T07:15:37.869Z,20.30
2023-04-17T07:18:06.244Z,19.60
2023-04-17T07:20:34.378Z,20.63
2023-04-17T07:23:03.843Z,19.30
2023-04-17T07:25:31.886Z,19.23
2023-04-17T07:27:59.999Z,18.33
2023-04-17T07:30:28.604Z,20.43
2023-04-17T07:32:56.846Z,19.93
2023-04-17T07:35:25.017Z,19.47
2023-04-17T07:37:53.112Z,19.27
2023-04-17T07:40:22.716Z,20.50
2023-04-17T07:42:50.934Z,19.73
2023-04-17T07:46:29.877Z,19.63
2023-04-17T07:48:58.040Z,20.60
2023-04-17T07:51:26.229Z,21.07
2023-04-17T07:53:54.419Z,20.33
2023-04-17T07:56:24.292Z,19.27
2023-04-17T07:58:52.898Z,20.63
2023-04-17T08:01:22.859Z,20.17
2023-04-17T08:03:51.855Z,20.70
2023-04-17T08:06:20.149Z,21.03
2023-04-17T08:08:48.246Z,19.27
2023-04-17T08:11:16.354Z,20.77
2023-04-17T08:13:45.785Z,20.83
2023-04-17T08:16:14.188Z,20.50
2023-04-17T08:18:42.423Z,21.47
2023-04-17T08:21:10.759Z,21.83
2023-04-17T08:23:38.863Z,21.60
2023-04-17T08:26:06.936Z,20.70
2023-04-17T08:28:35.039Z,20.67
2023-04-17T08:31:04.761Z,21.57
2023-04-17T08:33:32.859Z,20.30
2023-04-17T08:36:03.372Z,21.57
2023-04-17T08:38:32.110Z,20.70
2023-04-17T08:41:03.923Z,19.60
2023-04-17T08:43:33.104Z,20.03
2023-04-17T08:46:01.912Z,17.63
2023-04-17T08:48:32.173Z,18.80
2023-04-17T08:51:00.377Z,19.13
2023-04-17T08:53:28.437Z,19.93
2023-04-17T08:55:56.533Z,18.80
2023-04-17T08:58:28.590Z,18.70
2023-04-17T09:01:07.956Z,18.67
2023-04-17T09:03:43.382Z,19.77
2023-04-17T09:06:11.891Z,18.57
2023-04-17T09:08:40.486Z,18.30
2023-04-17T09:11:18.529Z,20.30
2023-04-17T09:13:46.748Z,18.27
2023-04-17T09:16:16.013Z,18.27
2023-04-17T09:18:46.316Z,17.97
2023-04-17T09:21:16.439Z,18.33
2023-04-17T09:23:49.649Z,18.20
2023-04-17T09:26:19.540Z,18.33
2023-04-17T09:29:05.285Z,18.30
2023-04-17T09:31:36.231Z,18.90
2023-04-17T09:34:07.651Z,19.67
2023-04-17T09:36:38.357Z,18.67
2023-04-17T09:39:17.162Z,17.73
2023-04-17T09:41:45.238Z,19.60
2023-04-17T09:44:20.067Z,17.87
2023-04-17T09:46:48.187Z,17.60
2023-04-17T09:49:25.048Z,18.43
2023-04-17T09:51:54.124Z,18.27
2023-04-17T09:54:24.075Z,18.17
2023-04-17T09:56:55.762Z,18.67
2023-04-17T09:59:24.982Z,17.67
2023-04-17T10:01:54.378Z,19.07
2023-04-17T10:04:24.436Z,19.03
2023-04-17T10:06:52.553Z,17.50
2023-04-17T10:09:20.699Z,18.33
2023-04-17T10:11:49.267Z,17.77
2023-04-17T10:14:22.040Z,17.57
2023-04-17T10:16:50.632Z,16.50
2023-04-17T10:19:33.368Z,17.50
2023-04-17T10:22:30.303Z,16.60
2023-04-17T10:25:20.925Z,18.60
2023-04-17T10:27:58.323Z,17.73
2023-04-17T10:30:50.852Z,16.60
2023-04-17T10:33:24.670Z,16.43
2023-04-17T10:35:55.040Z,17.57
2023-04-17T10:38:38.015Z,16.93
2023-04-17T10:41:11.248Z,16.90
2023-04-17T10:43:45.527Z,16.83
2023-04-17T10:46:14.713Z,17.13
2023-04-17T10:48:49.843Z,17.73
2023-04-17T10:51:42.068Z,16.37
2023-04-17T10:54:13.820Z,15.70
2023-04-17T10:56:43.347Z,14.20
2023-04-17T10:59:13.759Z,15.47
2023-04-17T11:01:58.088Z,15.77
2023-04-17T11:04:28.862Z,13.93
2023-04-17T11:06:59.127Z,13.73
2023-04-17T11:09:29.429Z,14.93
2023-04-17T11:12:01.406Z,15.17
2023-04-17T11:14:30.421Z,13.93
2023-04-17T11:16:58.705Z,13.33
2023-04-17T11:19:27.218Z,13.80
2023-04-17T11:21:58.825Z,15.00
2023-04-17T11:24:28.530Z,14.90
2023-04-17T11:26:58.349Z,14.77
2023-04-17T11:29:27.201Z,15.03
2023-04-17T11:31:56.653Z,13.83
2023-04-17T11:34:27.109Z,15.33
2023-04-17T11:36:58.996Z,14.37
2023-04-17T11:39:29.187Z,15.00
2023-04-17T11:41:57.964Z,14.67
2023-04-17T11:44:26.851Z,13.37
2023-04-17T11:46:56.072Z,13.07
2023-04-17T11:49:28.313Z,13.33
2023-04-17T11:52:00.078Z,14.50
2023-04-17T11:54:28.632Z,14.40
2023-04-17T11:57:00.163Z,13.50
2023-04-17T11:59:32.100Z,13.50
2023-04-17T12:02:02.044Z,12.50
2023-04-17T12:04:33.588Z,12.93
2023-04-17T12:07:04.179Z,12.63
2023-04-17T12:09:32.962Z,13.93
2023-04-17T12:12:01.802Z,13.20
2023-04-17T12:14:29.902Z,11.80
2023-04-17T12:16:58.020Z,13.00
2023-04-17T12:19:27.441Z,12.17
2023-04-17T12:21:55.802Z,11.70
2023-04-17T12:24:25.497Z,11.00
2023-04-17T12:26:53.728Z,11.50
2023-04-17T12:29:36.212Z,12.47
2023-04-17T12:32:10.918Z,12.60
2023-04-17T12:34:39.146Z,11.33
2023-04-17T12:37:07.258Z,11.57
2023-04-17T12:39:36.692Z,11.37
2023-04-17T12:42:05.002Z,12.50
2023-04-17T12:44:33.125Z,12.33
2023-04-17T12:47:01.254Z,10.80
2023-04-17T12:49:29.395Z,11.67
2023-04-17T12:51:57.492Z,11.73
2023-04-17T12:54:25.572Z,10.97
2023-04-17T12:56:55.124Z,11.07
2023-04-17T12:59:23.162Z,9.70
2023-04-17T13:01:51.366Z,9.43
2023-04-17T13:04:20.106Z,10.00
2023-04-17T13:06:48.744Z,10.87
2023-04-17T13:09:17.274Z,10.60
2023-04-17T13:11:45.333Z,10.57
2023-04-17T13:14:15.352Z,9.97
2023-04-17T13:16:43.553Z,8.50
2023-04-17T13:19:11.996Z,8.53
2023-04-17T13:21:40.422Z,9.50
2023-04-17T13:24:14.354Z,8.33
2023-04-17T13:26:42.750Z,9.00
2023-04-17T13:29:11.435Z,8.47
2023-04-17T13:31:41.142Z,9.63
2023-04-17T13:34:10.863Z,8.93
2023-04-17T13:36:38.929Z,9.07
2023-04-17T13:39:07.392Z,8.43
2023-04-17T13:41:35.447Z,7.27
2023-04-17T13:44:03.552Z,8.77
2023-04-17T13:46:32.282Z,7.30
2023-04-17T13:49:01.817Z,7.60
2023-04-17T13:51:30.052Z,8.40
2023-04-17T13:53:59.651Z,8.20
2023-04-17T13:56:28.085Z,8.43
2023-04-17T13:58:57.521Z,8.00
2023-04-17T14:01:25.784Z,8.60
2023-04-17T14:03:54.298Z,8.60
2023-04-17T14:06:23.904Z,8.93
2023-04-17T14:08:52.023Z,8.63
2023-04-17T14:11:20.108Z,9.77
2023-04-17T14:13:48.192Z,8.90
2023-04-17T14:16:16.370Z,9.20
2023-04-17T14:18:44.479Z,8.67
2023-04-17T14:21:13.009Z,8.63
2023-04-17T14:23:42.532Z,8.90
2023-04-17T14:26:10.693Z,8.77
2023-04-17T14:28:38.811Z,8.90
2023-04-17T14:44:11.268Z,8.37
2023-04-17T14:46:39.651Z,8.57
2023-04-17T14:49:08.504Z,8.60
2023-04-17T14:51:36.634Z,9.77
2023-04-17T14:54:05.140Z,8.93
2023-04-17T14:56:33.347Z,9.20
2023-04-17T14:59:01.592Z,8.67
2023-04-17T15:01:31.080Z,8.40
2023-04-17T15:03:59.482Z,7.60
2023-04-17T15:06:27.951Z,8.07
2023-04-17T15:08:56.050Z,8.90
2023-04-17T15:11:24.628Z,8.50
2023-04-17T15:13:52.885Z,8.97
2023-04-17T15:16:21.046Z,8.27
2023-04-17T15:18:51.205Z,7.80
2023-04-17T15:21:19.778Z,8.33
2023-04-17T15:27:54.011Z,9.17
2023-04-17T15:30:22.072Z,8.47
2023-04-17T15:32:50.368Z,8.90
2023-04-17T15:35:19.824Z,7.80
2023-04-17T15:37:48.541Z,8.53
2023-04-17T15:40:17.303Z,8.50
2023-04-17T15:42:45.410Z,7.40
2023-04-17T15:45:13.515Z,7.77
2023-04-17T15:47:41.647Z,7.27
2023-04-17T15:50:10.939Z,7.83
2023-04-17T15:52:40.366Z,7.70
2023-04-17T15:55:08.992Z,8.73
2023-04-17T15:57:37.104Z,8.30
2023-04-17T16:00:06.391Z,8.60
2023-04-17T16:02:34.549Z,7.77
2023-04-17T16:05:03.996Z,8.73
2023-04-17T16:07:32.601Z,10.40
2023-04-17T16:10:02.129Z,8.23
2023-04-17T16:12:30.243Z,8.40
2023-04-17T16:14:58.326Z,7.93
2023-04-17T16:17:26.480Z,8.43
2023-04-17T16:19:54.648Z,8.37
2023-04-17T16:22:22.684Z,7.70
2023-04-17T16:24:50.768Z,7.97
2023-04-17T16:27:20.181Z,6.70
2023-04-17T16:29:48.258Z,7.43
2023-04-17T16:32:16.425Z,8.00
2023-04-17T16:34:44.812Z,7.47
2023-04-17T16:37:12.963Z,7.53
2023-04-17T16:39:40.998Z,7.67
2023-04-17T16:42:09.257Z,8.00
2023-04-17T16:44:38.726Z,7.50
2023-04-17T16:47:13.627Z,8.00
2023-04-17T16:49:42.366Z,7.83
2023-04-17T16:52:10.919Z,7.47
2023-04-17T16:54:39.019Z,7.13
2023-04-17T16:57:07.246Z,6.63
2023-04-17T16:59:35.438Z,7.37
2023-04-17T17:02:05.056Z,7.17
2023-04-17T17:04:33.195Z,7.43
2023-04-17T17:07:01.535Z,7.13
2023-04-17T17:09:29.783Z,6.90
2023-04-17T17:19:41.632Z,7.60
2023-04-17T17:22:09.909Z,6.43
2023-04-17T17:24:38.001Z,7.17
2023-04-17T17:27:06.100Z,7.70
2023-04-17T17:29:34.422Z,6.43
2023-04-17T17:32:02.575Z,6.37
2023-04-17T17:34:32.563Z,7.17
2023-04-17T17:37:02.234Z,6.60
2023-04-17T17:39:30.345Z,7.73
2023-04-17T17:41:58.558Z,7.40
2023-04-17T17:44:26.700Z,7.97
2023-04-17T17:46:54.792Z,7.57
2023-04-17T17:49:22.943Z,7.43
2023-04-17T17:51:50.994Z,8.00
2023-04-17T17:54:20.771Z,7.43
2023-04-17T17:56:49.205Z,7.50
2023-04-17T17:59:17.328Z,7.97
2023-04-17T18:01:45.415Z,7.43
2023-04-17T18:04:13.713Z,8.10
2023-04-17T18:06:42.719Z,7.20
2023-04-17T18:09:10.863Z,7.87
2023-04-17T18:11:40.815Z,7.63
2023-04-17T18:21:51.154Z,8.67
2023-04-17T18:24:19.254Z,8.00
2023-04-17T18:26:49.341Z,7.67
2023-04-17T18:29:18.735Z,7.83
2023-04-17T18:31:46.915Z,7.90
2023-04-17T18:34:15.226Z,7.80
2023-04-17T18:36:43.424Z,8.07
2023-04-17T18:39:12.071Z,8.13
2023-04-17T18:41:40.179Z,7.77
2023-04-17T18:44:09.650Z,7.37
2023-04-17T18:46:37.794Z,7.20
2023-04-17T18:49:05.885Z,7.17
2023-04-17T18:51:34.090Z,7.03
2023-04-17T18:54:02.732Z,7.23
2023-04-17T18:56:30.913Z,6.40
2023-04-17T18:58:58.978Z,7.30
2023-04-17T19:01:28.488Z,6.33
2023-04-17T19:11:38.241Z,5.90
2023-04-17T19:14:06.296Z,6.87
2023-04-17T19:16:35.804Z,5.40
2023-04-17T19:19:05.605Z,5.90
2023-04-17T19:21:33.741Z,6.20
2023-04-17T19:24:01.882Z,6.07
2023-04-17T19:26:30.004Z,6.13
2023-04-17T19:28:58.255Z,5.97
2023-04-17T19:31:26.517Z,5.50
2023-04-17T19:33:57.315Z,6.07
2023-04-17T19:36:25.666Z,5.73
2023-04-17T19:38:55.080Z,6.63
2023-04-17T19:41:23.201Z,5.23
2023-04-17T19:43:54.197Z,5.60
2023-04-17T19:46:24.626Z,6.33
2023-04-17T19:48:52.918Z,5.50
2023-04-17T19:51:22.369Z,5.37
2023-04-17T19:53:50.531Z,5.00
2023-04-17T19:56:18.608Z,5.90
2023-04-17T19:58:48.065Z,5.27
2023-04-17T20:01:16.450Z,5.50
2023-04-17T20:03:45.541Z,5.70
2023-04-17T20:06:14.680Z,6.00
2023-04-17T20:08:44.215Z,5.33
2023-04-17T20:11:12.863Z,5.43
2023-04-17T20:13:41.012Z,5.93
2023-04-17T20:16:09.521Z,5.40
2023-04-17T20:18:38.166Z,5.63
2023-04-17T20:21:07.181Z,5.03
2023-04-17T20:23:35.341Z,5.93
2023-04-17T20:26:04.846Z,5.57
2023-04-17T20:28:32.947Z,5.80
2023-04-17T20:31:01.163Z,5.77
2023-04-17T20:33:29.349Z,6.10
2023-04-17T20:35:57.490Z,5.53
2023-04-17T20:38:25.726Z,5.33
2023-04-17T20:40:53.892Z,6.20
2023-04-17T20:43:23.372Z,5.43
2023-04-17T20:45:51.544Z,5.90
2023-04-17T20:48:19.981Z,5.27
2023-04-17T20:50:48.107Z,5.90
2023-04-17T20:53:16.224Z,5.37
2023-04-17T20:55:46.784Z,5.23
2023-04-17T20:58:14.891Z,5.40
2023-04-17T21:00:57.908Z,5.43
2023-04-17T21:03:30.791Z,5.70
2023-04-17T21:05:59.231Z,5.40
2023-04-17T21:08:27.369Z,6.00
2023-04-17T21:10:55.501Z,5.60
2023-04-17T21:13:23.873Z,5.37
2023-04-17T21:15:53.504Z,5.67
2023-04-17T21:18:21.698Z,5.63
2023-04-17T21:20:49.752Z,5.80
2023-04-17T21:23:17.852Z,6.00
2023-04-17T21:25:46.196Z,5.80
2023-04-17T21:28:14.268Z,5.87
2023-04-17T21:30:42.336Z,6.33
2023-04-17T21:33:11.787Z,6.30
2023-04-17T21:35:40.217Z,6.43
2023-04-17T21:38:08.363Z,6.63
2023-04-17T21:40:37.123Z,6.80
2023-04-17T21:43:05.422Z,6.50
2023-04-17T21:45:33.663Z,6.93
2023-04-17T21:48:01.793Z,6.30
2023-04-17T21:50:31.541Z,6.93
2023-04-17T21:52:59.603Z,6.63
2023-04-17T21:55:28.008Z,6.33
2023-04-17T21:57:56.049Z,6.83
2023-04-17T22:00:24.120Z,6.83
2023-04-17T22:02:52.374Z,6.43
2023-04-17T22:05:20.810Z,7.63
2023-04-17T22:07:55.040Z,7.30
2023-04-17T22:10:24.287Z,7.80
2023-04-17T22:12:52.509Z,7.40
2023-04-17T22:15:20.756Z,7.57
2023-04-17T22:17:48.953Z,8.83
2023-04-17T22:20:17.162Z,8.10
2023-04-17T22:22:45.631Z,8.23
2023-04-17T22:25:15.057Z,9.37
2023-04-17T22:27:43.304Z,9.07
2023-04-17T22:30:11.714Z,8.53
2023-04-17T22:32:39.896Z,8.90
2023-04-17T22:35:09.527Z,8.77
2023-04-17T22:37:37.591Z,8.07
2023-04-17T22:40:06.475Z,8.33
2023-04-17T22:42:35.896Z,8.67
2023-04-17T22:45:04.025Z,8.07
2023-04-17T22:47:32.128Z,8.60
2023-04-17T22:50:00.222Z,8.43
2023-04-17T22:52:28.313Z,9.17
2023-04-17T22:54:56.435Z,8.37
2023-04-17T22:57:24.635Z,8.70
2023-04-17T22:59:54.084Z,7.80
2023-04-17T23:02:22.294Z,7.93
2023-04-17T23:04:50.449Z,8.70
2023-04-17T23:11:09.787Z,7.57
2023-04-17T23:13:37.870Z,7.90
2023-04-17T23:16:08.152Z,8.90
2023-04-17T23:18:37.170Z,8.10
2023-04-17T23:21:05.573Z,9.17
2023-04-17T23:23:33.684Z,8.47
2023-04-17T23:26:01.773Z,8.50
2023-04-17T23:28:31.066Z,8.20
2023-04-17T23:30:59.192Z,8.83
2023-04-17T23:33:28.659Z,8.37
2023-04-17T23:35:56.707Z,8.40
2023-04-17T23:38:24.876Z,8.33
2023-04-17T23:40:52.986Z,8.77
2023-04-17T23:43:21.192Z,9.67
2023-04-17T23:45:49.315Z,9.13
2023-04-17T23:48:17.348Z,8.03
2023-04-17T23:50:47.102Z,7.33
2023-04-17T23:53:15.198Z,8.17
2023-04-17T23:55:43.232Z,8.27
2023-04-17T23:58:11.275Z,7.53
